createdAt,value
2023-04-16T00:01:02.730Z,100453.10
2023-04-16T00:03:00.147Z,100452.94
2023-04-16T00:04:53.304Z,100457.63
2023-04-16T00:06:46.535Z,100461.52
2023-04-16T00:08:41.371Z,100459.63
2023-04-16T00:10:35.349Z,100458.96
2023-04-16T00:12:29.032Z,100462.02
2023-04-16T00:14:22.234Z,100464.11
2023-04-16T00:16:15.540Z,100468.73
2023-04-16T00:18:08.668Z,100473.19
2023-04-16T00:20:01.698Z,100472.02
2023-04-16T00:21:54.638Z,100475.75
2023-04-16T00:23:47.611Z,100474.99
2023-04-16T00:25:40.669Z,100475.46
2023-04-16T00:27:33.706Z,100476.46
2023-04-16T00:29:29.124Z,100475.25
2023-04-16T00:31:29.625Z,100474.66
2023-04-16T00:33:22.979Z,100477.38
2023-04-16T00:35:16.052Z,100474.27
2023-04-16T00:37:08.977Z,100472.82
2023-04-16T00:39:01.966Z,100474.03
2023-04-16T00:40:54.899Z,100472.32
2023-04-16T00:42:47.935Z,100475.79
2023-04-16T00:44:41.084Z,100478.48
2023-04-16T00:46:35.109Z,100476.08
2023-04-16T00:48:28.394Z,100477.34
2023-04-16T00:50:21.892Z,100478.44
2023-04-16T00:52:15.124Z,100482.47
2023-04-16T00:54:08.294Z,100481.92
2023-04-16T00:56:04.222Z,100484.81
2023-04-16T00:57:57.176Z,100487.83
2023-04-16T00:59:50.091Z,100490.80
2023-04-16T01:01:43.437Z,100495.32
2023-04-16T01:03:43.762Z,100496.95
2023-04-16T01:05:37.128Z,100497.33
2023-04-16T01:07:30.178Z,100496.74
2023-04-16T01:09:23.023Z,100495.23
2023-04-16T01:11:16.483Z,100492.55
2023-04-16T01:13:09.432Z,100492.75
2023-04-16T01:15:03.017Z,100494.15
2023-04-16T01:16:56.560Z,100488.20
2023-04-16T01:18:49.618Z,100489.58
2023-04-16T01:20:42.702Z,100491.69
2023-04-16T01:22:35.613Z,100493.35
2023-04-16T01:24:28.458Z,100488.95
2023-04-16T01:26:21.613Z,100493.89
2023-04-16T01:28:14.557Z,100491.27
2023-04-16T01:30:08.221Z,100493.77
2023-04-16T01:32:12.346Z,100492.48
2023-04-16T01:34:07.160Z,100489.26
2023-04-16T01:36:00.592Z,100489.95
2023-04-16T01:37:53.630Z,100486.01
2023-04-16T01:39:46.482Z,100492.57
2023-04-16T01:41:39.529Z,100489.90
2023-04-16T01:43:32.485Z,100486.71
2023-04-16T01:45:25.895Z,100487.64
2023-04-16T01:47:18.826Z,100490.89
2023-04-16T01:49:12.194Z,100488.11
2023-04-16T01:51:05.540Z,100486.05
2023-04-16T01:52:58.447Z,100489.31
2023-04-16T01:54:51.293Z,100487.92
2023-04-16T01:56:44.142Z,100489.48
2023-04-16T01:58:37.298Z,100488.60
2023-04-16T02:00:30.552Z,100493.67
2023-04-16T02:02:28.318Z,100489.55
2023-04-16T02:04:21.777Z,100491.11
2023-04-16T02:06:15.121Z,100488.39
2023-04-16T02:08:07.973Z,100486.43
2023-04-16T02:10:01.547Z,100490.02
2023-04-16T02:11:54.992Z,100490.60
2023-04-16T02:13:47.849Z,100488.69
2023-04-16T02:15:45.796Z,100491.15
2023-04-16T02:17:38.785Z,100493.96
2023-04-16T02:19:34.878Z,100498.93
2023-04-16T02:21:28.038Z,100496.17
2023-04-16T02:23:20.875Z,100497.80
2023-04-16T02:25:16.889Z,100500.06
2023-04-16T02:27:10.044Z,100498.68
2023-04-16T02:29:03.822Z,100499.23
2023-04-16T02:31:03.115Z,100498.73
2023-04-16T02:32:59.200Z,100501.70
2023-04-16T02:34:52.892Z,100501.15
2023-04-16T02:36:45.843Z,100504.54
2023-04-16T02:38:38.795Z,100500.05
2023-04-16T02:40:32.261Z,100501.68
2023-04-16T02:42:25.927Z,100499.38
2023-04-16T02:44:18.864Z,100504.88
2023-04-16T02:46:12.266Z,100502.44
2023-04-16T02:48:07.338Z,100501.40
2023-04-16T02:50:00.163Z,100502.58
2023-04-16T02:51:53.010Z,100501.90
2023-04-16T02:53:46.241Z,100507.55
2023-04-16T02:55:39.942Z,100505.02
2023-04-16T02:57:34.108Z,100501.83
2023-04-16T02:59:27.162Z,100505.84
2023-04-16T03:01:20.040Z,100507.71
2023-04-16T03:03:13.848Z,100507.14
2023-04-16T03:05:07.231Z,100510.23
2023-04-16T03:07:00.114Z,100512.35
2023-04-16T03:08:53.025Z,100510.81
2023-04-16T03:10:45.975Z,100513.78
2023-04-16T03:12:40.867Z,100516.66
2023-04-16T03:14:34.229Z,100519.34
2023-04-16T03:16:27.176Z,100519.71
2023-04-16T03:18:20.126Z,100521.98
2023-04-16T03:20:17.209Z,100521.98
2023-04-16T03:22:10.218Z,100519.68
2023-04-16T03:24:03.168Z,100527.74
2023-04-16T03:25:56.121Z,100523.77
2023-04-16T03:27:49.140Z,100525.90
2023-04-16T03:29:42.629Z,100527.79
2023-04-16T03:31:36.401Z,100524.69
2023-04-16T03:33:29.649Z,100528.95
2023-04-16T03:35:22.511Z,100527.41
2023-04-16T03:37:15.670Z,100529.26
2023-04-16T03:39:08.728Z,100532.09
2023-04-16T03:41:02.261Z,100534.19
2023-04-16T03:42:56.755Z,100532.88
2023-04-16T03:44:49.895Z,100534.97
2023-04-16T03:46:43.353Z,100533.92
2023-04-16T03:48:36.716Z,100535.92
2023-04-16T03:50:29.950Z,100538.90
2023-04-16T03:52:22.930Z,100544.54
2023-04-16T03:54:15.874Z,100543.86
2023-04-16T03:56:10.349Z,100548.09
2023-04-16T03:58:05.046Z,100553.16
2023-04-16T03:59:58.400Z,100552.23
2023-04-16T04:01:52.787Z,100553.50
2023-04-16T04:03:46.126Z,100559.94
2023-04-16T04:05:41.210Z,100561.71
2023-04-16T04:07:35.208Z,100561.98
2023-04-16T04:09:28.878Z,100565.50
2023-04-16T04:11:21.925Z,100568.55
2023-04-16T04:13:14.871Z,100568.73
2023-04-16T04:15:09.103Z,100570.23
2023-04-16T04:17:02.001Z,100572.28
2023-04-16T04:18:55.767Z,100577.76
2023-04-16T04:20:48.927Z,100577.20
2023-04-16T04:22:43.198Z,100573.50
2023-04-16T04:24:37.989Z,100576.70
2023-04-16T04:26:30.981Z,100581.46
2023-04-16T04:28:23.998Z,100581.73
2023-04-16T04:30:16.939Z,100585.19
2023-04-16T04:32:09.983Z,100585.66
2023-04-16T04:34:02.936Z,100584.69
2023-04-16T04:35:56.017Z,100590.84
2023-04-16T04:37:49.210Z,100591.84
2023-04-16T04:39:44.859Z,100592.43
2023-04-16T04:41:38.209Z,100590.39
2023-04-16T04:43:31.360Z,100594.62
2023-04-16T04:45:25.770Z,100590.94
2023-04-16T04:47:19.535Z,100594.08
2023-04-16T04:49:12.456Z,100598.17
2023-04-16T04:51:05.714Z,100598.39
2023-04-16T04:52:58.766Z,100600.55
2023-04-16T04:54:52.842Z,100601.23
2023-04-16T04:56:46.616Z,100595.96
2023-04-16T04:58:41.195Z,100599.32
2023-04-16T05:00:34.860Z,100601.83
2023-04-16T05:02:28.162Z,100605.85
2023-04-16T05:04:21.161Z,100607.85
2023-04-16T05:06:14.110Z,100606.73
2023-04-16T05:08:07.472Z,100609.45
2023-04-16T05:10:00.835Z,100611.48
2023-04-16T05:11:53.780Z,100614.73
2023-04-16T05:13:46.724Z,100614.60
2023-04-16T05:15:40.186Z,100619.73
2023-04-16T05:17:33.057Z,100625.22
2023-04-16T05:19:25.987Z,100620.11
2023-04-16T05:21:18.940Z,100624.73
2023-04-16T05:23:11.785Z,100627.65
2023-04-16T05:25:05.458Z,100632.63
2023-04-16T05:26:58.387Z,100629.91
2023-04-16T05:28:51.344Z,100631.20
2023-04-16T05:30:44.220Z,100629.73
2023-04-16T05:32:37.455Z,100631.67
2023-04-16T05:34:30.893Z,100633.02
2023-04-16T05:36:23.701Z,100632.59
2023-04-16T05:38:16.589Z,100633.44
2023-04-16T05:40:10.005Z,100635.39
2023-04-16T05:42:03.027Z,100636.02
2023-04-16T05:43:56.370Z,100641.16
2023-04-16T05:45:49.268Z,100639.77
2023-04-16T05:47:42.303Z,100642.13
2023-04-16T05:49:37.438Z,100640.16
2023-04-16T05:51:30.291Z,100643.38
2023-04-16T05:53:23.963Z,100641.95
2023-04-16T05:55:16.803Z,100642.28
2023-04-16T05:57:09.752Z,100643.75
2023-04-16T05:59:02.910Z,100642.95
2023-04-16T06:00:56.261Z,100647.14
2023-04-16T06:02:49.563Z,100646.57
2023-04-16T06:04:42.569Z,100648.52
2023-04-16T06:06:37.487Z,100649.20
2023-04-16T06:08:30.313Z,100651.45
2023-04-16T06:10:23.266Z,100651.23
2023-04-16T06:12:16.515Z,100653.24
2023-04-16T06:14:09.390Z,100659.99
2023-04-16T06:16:02.363Z,100659.70
2023-04-16T06:17:56.304Z,100664.14
2023-04-16T06:19:49.225Z,100662.38
2023-04-16T06:21:42.173Z,100670.20
2023-04-16T06:23:35.019Z,100670.63
2023-04-16T06:25:27.873Z,100674.27
2023-04-16T06:27:20.916Z,100676.52
2023-04-16T06:29:13.867Z,100679.16
2023-04-16T06:31:06.843Z,100682.38
2023-04-16T06:33:00.117Z,100683.98
2023-04-16T06:34:54.502Z,100681.05
2023-04-16T06:36:49.089Z,100684.35
2023-04-16T06:38:45.055Z,100692.41
2023-04-16T06:40:38.002Z,100685.02
2023-04-16T06:42:31.259Z,100689.91
2023-04-16T06:44:24.207Z,100691.09
2023-04-16T06:46:17.167Z,100692.13
2023-04-16T06:48:10.103Z,100693.71
2023-04-16T06:50:03.049Z,100693.34
2023-04-16T06:51:56.521Z,100697.40
2023-04-16T06:53:49.772Z,100692.42
2023-04-16T06:55:42.617Z,100694.52
2023-04-16T06:57:37.477Z,100695.35
2023-04-16T06:59:30.659Z,100699.16
2023-04-16T07:01:23.995Z,100703.34
2023-04-16T07:03:17.396Z,100701.00
2023-04-16T07:05:11.375Z,100705.36
2023-04-16T07:07:05.443Z,100710.20
2023-04-16T07:08:58.747Z,100708.48
2023-04-16T07:10:53.889Z,100714.36
2023-04-16T07:12:47.854Z,100714.52
2023-04-16T07:14:41.820Z,100717.92
2023-04-16T07:16:34.835Z,100715.38
2023-04-16T07:18:28.131Z,100721.45
2023-04-16T07:20:21.592Z,100721.03
2023-04-16T07:22:14.640Z,100721.33
2023-04-16T07:24:07.694Z,100724.77
2023-04-16T07:26:00.875Z,100723.67
2023-04-16T07:27:53.798Z,100726.19
2023-04-16T07:29:47.045Z,100724.61
2023-04-16T07:31:40.211Z,100727.66
2023-04-16T07:33:33.146Z,100729.47
2023-04-16T07:35:26.098Z,100731.90
2023-04-16T07:37:19.046Z,100730.15
2023-04-16T07:39:13.427Z,100735.50
2023-04-16T07:41:06.475Z,100735.80
2023-04-16T07:42:59.741Z,100737.27
2023-04-16T07:44:52.572Z,100742.00
2023-04-16T07:46:47.369Z,100741.41
2023-04-16T07:48:41.032Z,100740.19
2023-04-16T07:50:33.890Z,100741.96
2023-04-16T07:52:27.033Z,100743.21
2023-04-16T07:54:20.490Z,100744.71
2023-04-16T07:56:16.283Z,100741.74
2023-04-16T07:58:09.830Z,100741.71
2023-04-16T08:00:05.096Z,100744.35
2023-04-16T08:02:06.496Z,100743.61
2023-04-16T08:03:59.755Z,100745.82
2023-04-16T08:05:53.130Z,100744.77
2023-04-16T08:07:46.293Z,100745.15
2023-04-16T08:09:48.872Z,100745.52
2023-04-16T08:11:41.806Z,100748.83
2023-04-16T08:13:35.061Z,100749.46
2023-04-16T08:15:28.070Z,100748.95
2023-04-16T08:17:21.414Z,100753.19
2023-04-16T08:19:14.313Z,100753.70
2023-04-16T08:21:07.265Z,100753.39
2023-04-16T08:23:00.154Z,100755.95
2023-04-16T08:24:53.061Z,100755.07
2023-04-16T08:26:46.017Z,100755.77
2023-04-16T08:28:39.859Z,100755.67
2023-04-16T08:30:32.727Z,100756.52
2023-04-16T08:32:29.055Z,100760.36
2023-04-16T08:34:22.096Z,100763.77
2023-04-16T08:36:15.360Z,100765.86
2023-04-16T08:38:08.312Z,100770.00
2023-04-16T08:40:02.509Z,100772.40
2023-04-16T08:41:57.073Z,100776.16
2023-04-16T08:43:56.446Z,100774.27
2023-04-16T08:45:49.623Z,100777.02
2023-04-16T08:47:47.841Z,100778.91
2023-04-16T08:49:46.257Z,100781.44
2023-04-16T08:51:42.993Z,100783.41
2023-04-16T08:53:41.445Z,100786.55
2023-04-16T08:55:37.510Z,100785.29
2023-04-16T08:57:44.639Z,100784.91
2023-04-16T08:59:40.159Z,100787.23
2023-04-16T09:01:34.329Z,100791.99
2023-04-16T09:03:29.663Z,100791.23
2023-04-16T09:05:25.924Z,100787.73
2023-04-16T09:07:20.893Z,100790.80
2023-04-16T09:09:15.069Z,100789.80
2023-04-16T09:11:07.873Z,100792.98
2023-04-16T09:13:01.544Z,100794.60
2023-04-16T09:14:57.308Z,100791.56
2023-04-16T09:16:53.282Z,100793.66
2023-04-16T09:18:48.000Z,100796.29
2023-04-16T09:20:40.952Z,100798.79
2023-04-16T09:22:34.103Z,100800.92
2023-04-16T09:24:27.256Z,100801.33
2023-04-16T09:26:21.964Z,100806.59
2023-04-16T09:28:42.233Z,100804.55
2023-04-16T09:30:35.127Z,100802.85
2023-04-16T09:32:29.298Z,100801.58
2023-04-16T09:34:22.515Z,100801.08
2023-04-16T09:36:23.723Z,100801.69
2023-04-16T09:38:17.338Z,100798.81
2023-04-16T09:40:10.988Z,100799.84
2023-04-16T09:42:06.185Z,100798.19
2023-04-16T09:44:04.649Z,100799.02
2023-04-16T09:45:57.529Z,100800.30
2023-04-16T09:47:50.627Z,100804.24
2023-04-16T09:49:44.401Z,100804.15
2023-04-16T09:51:38.816Z,100806.73
2023-04-16T09:53:32.420Z,100804.51
2023-04-16T09:55:27.818Z,100806.27
2023-04-16T09:57:22.570Z,100803.36
2023-04-16T09:59:19.625Z,100802.73
2023-04-16T10:01:13.454Z,100799.51
2023-04-16T10:03:07.356Z,100806.70
2023-04-16T10:05:04.298Z,100808.23
2023-04-16T10:07:07.125Z,100807.69
2023-04-16T10:09:00.028Z,100811.69
2023-04-16T10:10:54.379Z,100814.71
2023-04-16T10:12:47.470Z,100818.59
2023-04-16T10:14:41.746Z,100819.17
2023-04-16T10:16:35.565Z,100818.89
2023-04-16T10:18:29.578Z,100816.01
2023-04-16T10:20:24.456Z,100818.07
2023-04-16T10:22:17.636Z,100815.05
2023-04-16T10:24:11.290Z,100817.40
2023-04-16T10:26:05.888Z,100819.76
2023-04-16T10:28:00.176Z,100821.30
2023-04-16T10:29:53.074Z,100822.98
2023-04-16T10:31:47.797Z,100825.17
2023-04-16T10:33:42.501Z,100822.51
2023-04-16T10:35:40.523Z,100823.22
2023-04-16T10:37:33.811Z,100822.89
2023-04-16T10:39:29.682Z,100824.64
2023-04-16T10:41:22.774Z,100824.43
2023-04-16T10:43:19.822Z,100822.45
2023-04-16T10:45:12.591Z,100822.88
2023-04-16T10:47:13.110Z,100824.14
2023-04-16T10:49:23.136Z,100826.48
2023-04-16T10:51:28.163Z,100828.65
2023-04-16T10:53:23.368Z,100827.89
2023-04-16T10:55:17.548Z,100830.23
2023-04-16T10:57:16.403Z,100830.65
2023-04-16T10:59:11.554Z,100828.91
2023-04-16T11:01:32.410Z,100830.30
2023-04-16T11:03:26.077Z,100833.40
2023-04-16T11:05:23.032Z,100833.17
2023-04-16T11:07:19.470Z,100836.14
2023-04-16T11:09:47.734Z,100834.23
2023-04-16T11:11:41.004Z,100832.31
2023-04-16T11:13:37.122Z,100834.58
2023-04-16T11:15:31.650Z,100835.91
2023-04-16T11:17:29.393Z,100831.71
2023-04-16T11:19:22.311Z,100831.94
2023-04-16T11:21:15.367Z,100835.56
2023-04-16T11:23:11.254Z,100836.30
2023-04-16T11:25:05.117Z,100835.52
2023-04-16T11:26:58.100Z,100837.12
2023-04-16T11:28:51.676Z,100836.45
2023-04-16T11:30:45.058Z,100837.46
2023-04-16T11:32:39.137Z,100839.77
2023-04-16T11:34:33.373Z,100837.77
2023-04-16T11:36:27.747Z,100839.74
2023-04-16T11:38:21.223Z,100840.81
2023-04-16T11:40:14.093Z,100842.27
2023-04-16T11:42:07.129Z,100842.20
2023-04-16T11:43:59.941Z,100844.42
2023-04-16T11:46:02.575Z,100842.91
2023-04-16T11:47:58.064Z,100842.10
2023-04-16T11:49:51.355Z,100843.23
2023-04-16T11:51:47.030Z,100847.06
2023-04-16T11:53:48.110Z,100848.08
2023-04-16T11:55:45.783Z,100852.50
2023-04-16T11:57:38.774Z,100854.33
2023-04-16T11:59:31.806Z,100857.80
2023-04-16T12:01:24.652Z,100858.86
2023-04-16T12:03:18.049Z,100861.29
2023-04-16T12:05:28.986Z,100861.63
2023-04-16T12:07:21.829Z,100866.94
2023-04-16T12:09:26.246Z,100866.23
2023-04-16T12:11:19.099Z,100865.08
2023-04-16T12:13:16.753Z,100864.64
2023-04-16T12:15:09.802Z,100866.58
2023-04-16T12:17:21.608Z,100863.38
2023-04-16T12:19:14.952Z,100870.59
2023-04-16T12:21:08.408Z,100869.61
2023-04-16T12:23:01.560Z,100874.34
2023-04-16T12:25:04.943Z,100869.55
2023-04-16T12:27:03.374Z,100867.73
2023-04-16T12:29:14.915Z,100871.82
2023-04-16T12:31:08.583Z,100870.81
2023-04-16T12:33:16.055Z,100870.77
2023-04-16T12:35:10.865Z,100872.91
2023-04-16T12:37:07.705Z,100871.37
2023-04-16T12:39:00.544Z,100879.60
2023-04-16T12:40:56.976Z,100877.96
2023-04-16T12:42:50.435Z,100879.22
2023-04-16T12:44:43.291Z,100877.77
2023-04-16T12:46:37.631Z,100877.31
2023-04-16T12:48:32.551Z,100877.09
2023-04-16T12:50:25.403Z,100880.27
2023-04-16T12:52:18.247Z,100881.39
2023-04-16T12:54:11.194Z,100884.34
2023-04-16T12:56:04.245Z,100886.59
2023-04-16T12:57:57.092Z,100885.36
2023-04-16T12:59:50.051Z,100887.05
2023-04-16T13:01:43.183Z,100888.31
2023-04-16T13:03:37.442Z,100891.68
2023-04-16T13:05:30.738Z,100889.10
2023-04-16T13:07:24.988Z,100889.33
2023-04-16T13:09:19.492Z,100889.64
2023-04-16T13:11:13.054Z,100891.40
2023-04-16T13:13:06.309Z,100890.34
2023-04-16T13:14:59.266Z,100894.39
2023-04-16T13:16:52.311Z,100895.42
2023-04-16T13:18:45.256Z,100894.29
2023-04-16T13:20:38.309Z,100894.70
2023-04-16T13:22:31.256Z,100896.85
2023-04-16T13:24:24.439Z,100892.55
2023-04-16T13:26:17.564Z,100894.70
2023-04-16T13:28:10.593Z,100892.60
2023-04-16T13:30:03.666Z,100890.11
2023-04-16T13:31:57.633Z,100889.96
2023-04-16T13:33:50.902Z,100894.16
2023-04-16T13:35:43.747Z,100892.68
2023-04-16T13:37:36.581Z,100894.80
2023-04-16T13:39:29.426Z,100894.40
2023-04-16T13:41:22.386Z,100894.08
2023-04-16T13:43:17.321Z,100894.77
2023-04-16T13:45:10.332Z,100890.77
2023-04-16T13:47:03.243Z,100892.16
2023-04-16T13:48:56.474Z,100896.61
2023-04-16T13:50:49.385Z,100899.29
2023-04-16T13:52:42.149Z,100898.88
2023-04-16T13:54:34.953Z,100902.80
2023-04-16T13:56:28.105Z,100899.69
2023-04-16T13:58:21.062Z,100903.36
2023-04-16T14:00:15.531Z,100902.84
2023-04-16T14:02:10.686Z,100901.53
2023-04-16T14:04:06.626Z,100899.08
2023-04-16T14:05:59.919Z,100900.95
2023-04-16T14:07:52.865Z,100901.59
2023-04-16T14:09:45.707Z,100901.17
2023-04-16T14:11:38.670Z,100905.07
2023-04-16T14:13:31.607Z,100903.30
2023-04-16T14:15:26.808Z,100905.33
2023-04-16T14:17:19.698Z,100907.67
2023-04-16T14:19:13.406Z,100905.23
2023-04-16T14:21:06.673Z,100908.66
2023-04-16T14:22:59.517Z,100906.80
2023-04-16T14:24:52.368Z,100906.95
2023-04-16T14:26:46.983Z,100907.75
2023-04-16T14:28:41.035Z,100908.80
2023-04-16T14:30:33.870Z,100909.42
2023-04-16T14:32:27.674Z,100906.31
2023-04-16T14:34:20.995Z,100909.73
2023-04-16T14:36:14.258Z,100908.87
2023-04-16T14:38:07.201Z,100906.98
2023-04-16T14:40:00.148Z,100907.66
2023-04-16T14:41:52.987Z,100909.91
2023-04-16T14:43:46.154Z,100905.46
2023-04-16T14:45:39.176Z,100906.58
2023-04-16T14:47:34.003Z,100905.11
2023-04-16T14:49:26.940Z,100904.16
2023-04-16T14:51:19.784Z,100906.35
2023-04-16T14:53:12.731Z,100908.58
2023-04-16T14:55:07.206Z,100908.33
2023-04-16T14:57:00.673Z,100910.75
2023-04-16T14:58:53.658Z,100908.57
2023-04-16T15:00:46.570Z,100911.38
2023-04-16T15:02:39.661Z,100914.10
2023-04-16T15:04:33.176Z,100914.09
2023-04-16T15:06:27.053Z,100916.34
2023-04-16T15:08:19.901Z,100919.15
2023-04-16T15:10:13.566Z,100919.48
2023-04-16T15:12:06.514Z,100920.02
2023-04-16T15:13:59.365Z,100918.77
2023-04-16T15:15:52.411Z,100923.54
2023-04-16T15:17:45.430Z,100925.39
2023-04-16T15:19:38.815Z,100931.14
2023-04-16T15:21:33.460Z,100931.94
2023-04-16T15:23:26.878Z,100931.95
2023-04-16T15:25:20.326Z,100932.79
2023-04-16T15:27:14.917Z,100929.75
2023-04-16T15:29:07.759Z,100933.11
2023-04-16T15:31:00.734Z,100935.27
2023-04-16T15:32:55.319Z,100933.72
2023-04-16T15:34:49.016Z,100936.29
2023-04-16T15:36:42.110Z,100936.11
2023-04-16T15:38:34.962Z,100939.44
2023-04-16T15:40:27.907Z,100938.86
2023-04-16T15:42:21.615Z,100944.95
2023-04-16T15:44:14.542Z,100942.73
2023-04-16T15:46:08.882Z,100938.46
2023-04-16T15:48:01.962Z,100941.95
2023-04-16T15:49:55.105Z,100944.45
2023-04-16T15:51:48.160Z,100945.98
2023-04-16T15:53:42.435Z,100949.85
2023-04-16T15:55:35.911Z,100951.10
2023-04-16T15:57:29.048Z,100950.98
2023-04-16T15:59:21.999Z,100956.19
2023-04-16T16:01:14.971Z,100953.41
2023-04-16T16:03:08.099Z,100958.34
2023-04-16T16:05:01.134Z,100963.58
2023-04-16T16:06:54.095Z,100961.81
2023-04-16T16:08:47.046Z,100965.80
2023-04-16T16:10:40.999Z,100965.05
2023-04-16T16:12:34.379Z,100966.02
2023-04-16T16:14:27.231Z,100970.30
2023-04-16T16:16:21.823Z,100969.26
2023-04-16T16:18:15.000Z,100971.10
2023-04-16T16:20:10.941Z,100971.90
2023-04-16T16:22:04.365Z,100971.45
2023-04-16T16:23:58.009Z,100971.58
2023-04-16T16:25:53.207Z,100971.89
2023-04-16T16:27:46.266Z,100972.07
2023-04-16T16:29:39.230Z,100972.90
2023-04-16T16:31:32.721Z,100974.78
2023-04-16T16:33:25.916Z,100976.45
2023-04-16T16:35:19.807Z,100979.05
2023-04-16T16:37:14.995Z,100978.17
2023-04-16T16:39:08.232Z,100979.42
2023-04-16T16:41:01.290Z,100977.90
2023-04-16T16:42:54.274Z,100982.52
2023-04-16T16:44:48.011Z,100985.03
2023-04-16T16:46:41.343Z,100984.79
2023-04-16T16:48:34.312Z,100988.84
2023-04-16T16:50:27.164Z,100990.17
2023-04-16T16:52:23.892Z,100994.13
2023-04-16T16:54:16.759Z,100992.64
2023-04-16T16:56:09.689Z,100994.73
2023-04-16T16:58:03.269Z,100997.54
2023-04-16T16:59:56.101Z,100994.55
2023-04-16T17:01:48.964Z,100997.89
2023-04-16T17:03:42.184Z,100996.80
2023-04-16T17:05:35.768Z,100999.13
2023-04-16T17:07:28.610Z,101002.33
2023-04-16T17:09:21.457Z,101001.75
2023-04-16T17:11:17.373Z,101005.48
2023-04-16T17:13:10.639Z,101005.21
2023-04-16T17:15:03.996Z,101005.33
2023-04-16T17:16:56.951Z,101004.53
2023-04-16T17:18:50.297Z,101004.64
2023-04-16T17:20:43.142Z,101005.30
2023-04-16T17:22:37.619Z,101005.41
2023-04-16T17:24:30.575Z,101007.76
2023-04-16T17:26:23.628Z,101009.14
2023-04-16T17:28:16.499Z,101014.27
2023-04-16T17:30:09.969Z,101013.68
2023-04-16T17:32:03.794Z,101014.44
2023-04-16T17:33:56.855Z,101018.86
2023-04-16T17:35:49.907Z,101025.20
2023-04-16T17:37:42.761Z,101023.09
2023-04-16T17:39:36.104Z,101026.92
2023-04-16T17:41:28.869Z,101026.71
2023-04-16T17:43:21.794Z,101028.04
2023-04-16T17:45:15.457Z,101027.83
2023-04-16T17:47:08.303Z,101031.34
2023-04-16T17:49:01.493Z,101032.02
2023-04-16T17:50:54.632Z,101034.41
2023-04-16T17:52:47.777Z,101033.33
2023-04-16T17:54:40.712Z,101037.29
2023-04-16T17:56:33.660Z,101037.02
2023-04-16T17:58:26.807Z,101039.33
2023-04-16T18:00:20.296Z,101042.15
2023-04-16T18:02:13.345Z,101047.95
2023-04-16T18:04:07.302Z,101052.50
2023-04-16T18:06:01.569Z,101052.90
2023-04-16T18:07:55.748Z,101053.89
2023-04-16T18:09:48.597Z,101058.66
2023-04-16T18:11:41.541Z,101057.59
2023-04-16T18:13:35.206Z,101064.06
2023-04-16T18:15:28.197Z,101068.58
2023-04-16T18:17:22.857Z,101070.75
2023-04-16T18:19:17.092Z,101072.25
2023-04-16T18:21:12.300Z,101072.95
2023-04-16T18:23:07.581Z,101075.33
2023-04-16T18:25:01.761Z,101077.02
2023-04-16T18:26:57.264Z,101079.36
2023-04-16T18:28:51.417Z,101087.00
2023-04-16T18:30:46.020Z,101083.48
2023-04-16T18:32:59.867Z,101091.03
2023-04-16T18:34:54.142Z,101090.16
2023-04-16T18:36:48.199Z,101093.36
2023-04-16T18:38:57.052Z,101092.24
2023-04-16T18:40:54.250Z,101097.70
2023-04-16T18:42:48.463Z,101100.79
2023-04-16T18:44:42.828Z,101101.75
2023-04-16T18:46:37.493Z,101100.12
2023-04-16T18:48:32.529Z,101101.79
2023-04-16T18:50:29.208Z,101101.20
2023-04-16T18:52:26.104Z,101104.11
2023-04-16T18:54:23.126Z,101107.70
2023-04-16T18:56:16.246Z,101112.05
2023-04-16T18:58:09.096Z,101111.94
2023-04-16T19:00:06.763Z,101112.56
2023-04-16T19:02:00.062Z,101112.30
2023-04-16T19:03:53.563Z,101112.55
2023-04-16T19:05:46.570Z,101114.44
2023-04-16T19:07:40.127Z,101115.84
2023-04-16T19:09:33.032Z,101118.77
2023-04-16T19:11:25.988Z,101119.05
2023-04-16T19:13:19.133Z,101118.55
2023-04-16T19:15:12.401Z,101117.80
2023-04-16T19:17:05.703Z,101119.09
2023-04-16T19:19:02.595Z,101122.49
2023-04-16T19:21:02.084Z,101124.86
2023-04-16T19:22:55.148Z,101121.84
2023-04-16T19:24:48.090Z,101128.42
2023-04-16T19:26:41.241Z,101126.14
2023-04-16T19:28:34.096Z,101126.63
2023-04-16T19:30:31.130Z,101130.73
2023-04-16T19:32:24.615Z,101124.88
2023-04-16T19:34:17.546Z,101125.37
2023-04-16T19:36:11.410Z,101122.45
2023-04-16T19:38:05.415Z,101124.20
2023-04-16T19:39:58.341Z,101125.20
2023-04-16T19:41:52.096Z,101125.13
2023-04-16T19:43:45.457Z,101120.80
2023-04-16T19:45:47.488Z,101120.31
2023-04-16T19:47:41.627Z,101120.19
2023-04-16T19:49:35.563Z,101121.89
2023-04-16T19:51:28.613Z,101125.85
2023-04-16T19:53:27.603Z,101128.14
2023-04-16T19:55:20.757Z,101124.25
2023-04-16T19:57:14.729Z,101124.49
2023-04-16T19:59:08.141Z,101126.80
2023-04-16T20:01:01.224Z,101128.45
2023-04-16T20:02:56.493Z,101128.99
2023-04-16T20:04:50.163Z,101135.69
2023-04-16T20:06:44.180Z,101132.69
2023-04-16T20:08:38.768Z,101130.20
2023-04-16T20:10:32.766Z,101132.31
2023-04-16T20:12:26.097Z,101129.67
2023-04-16T20:14:19.381Z,101129.14
2023-04-16T20:16:13.613Z,101132.74
2023-04-16T20:18:10.284Z,101132.03
2023-04-16T20:20:07.410Z,101135.27
2023-04-16T20:22:00.254Z,101132.20
2023-04-16T20:23:53.100Z,101132.28
2023-04-16T20:25:46.664Z,101128.60
2023-04-16T20:27:39.939Z,101130.18
2023-04-16T20:29:33.173Z,101131.63
2023-04-16T20:31:27.252Z,101132.88
2023-04-16T20:33:20.634Z,101137.39
2023-04-16T20:35:14.914Z,101139.84
2023-04-16T20:37:09.079Z,101145.14
2023-04-16T20:39:08.215Z,101148.52
2023-04-16T20:41:10.829Z,101152.36
2023-04-16T20:43:03.680Z,101154.73
2023-04-16T20:44:56.699Z,101154.65
2023-04-16T20:46:51.019Z,101154.73
2023-04-16T20:48:44.568Z,101156.73
2023-04-16T20:50:37.519Z,101153.44
2023-04-16T20:52:30.873Z,101154.23
2023-04-16T20:54:23.831Z,101155.44
2023-04-16T20:56:17.185Z,101154.67
2023-04-16T20:58:10.029Z,101156.13
2023-04-16T21:00:04.432Z,101158.36
2023-04-16T21:01:58.065Z,101157.89
2023-04-16T21:03:51.547Z,101160.44
2023-04-16T21:05:50.105Z,101159.35
2023-04-16T21:07:43.272Z,101159.30
2023-04-16T21:09:36.317Z,101162.11
2023-04-16T21:11:33.396Z,101158.31
2023-04-16T21:13:26.835Z,101163.06
2023-04-16T21:15:20.241Z,101165.61
2023-04-16T21:17:14.150Z,101163.77
2023-04-16T21:19:08.976Z,101162.23
2023-04-16T21:21:02.286Z,101162.29
2023-04-16T21:22:56.917Z,101165.41
2023-04-16T21:24:49.854Z,101164.69
2023-04-16T21:26:42.728Z,101161.55
2023-04-16T21:28:35.636Z,101164.42
2023-04-16T21:30:28.581Z,101161.73
2023-04-16T21:32:21.441Z,101160.91
2023-04-16T21:34:14.469Z,101163.79
2023-04-16T21:36:07.681Z,101163.47
2023-04-16T21:38:00.902Z,101159.45
2023-04-16T21:39:53.743Z,101160.21
2023-04-16T21:41:46.680Z,101159.80
2023-04-16T21:43:39.628Z,101160.06